sensor_id;sensor_type;location;lat;lon;timestamp;P1;durP1;ratioP1;P2;durP2;ratioP2
6955;SDS011;50345;51.136;16.886;2022-11-20T00:01:53;44.10;;;23.70;;
6955;SDS011;50345;51.136;16.886;2022-11-20T00:04:19;55.13;;;28.20;;
6955;SDS011;50345;51.136;16.886;2022-11-20T00:06:46;77.63;;;38.58;;
6955;SDS011;50345;51.136;16.886;2022-11-20T00:09:12;83.53;;;38.72;;
6955;SDS011;50345;51.136;16.886;2022-11-20T00:11:38;65.45;;;33.17;;
6955;SDS011;50345;51.136;16.886;2022-11-20T00:14:04;63.95;;;31.70;;
6955;SDS011;50345;51.136;16.886;2022-11-20T00:16:31;71.85;;;32.30;;
6955;SDS011;50345;51.136;16.886;2022-11-20T00:18:57;65.85;;;33.00;;
6955;SDS011;50345;51.136;16.886;2022-11-20T00:21:24;68.57;;;34.97;;
6955;SDS011;50345;51.136;16.886;2022-11-20T00:23:51;64.03;;;31.88;;
6955;SDS011;50345;51.136;16.886;2022-11-20T00:26:19;67.18;;;36.65;;
6955;SDS011;50345;51.136;16.886;2022-11-20T00:28:52;63.97;;;36.65;;
6955;SDS011;50345;51.136;16.886;2022-11-20T00:31:18;78.10;;;41.00;;
6955;SDS011;50345;51.136;16.886;2022-11-20T00:33:45;69.40;;;38.85;;
6955;SDS011;50345;51.136;16.886;2022-11-20T00:36:18;73.50;;;41.30;;
6955;SDS011;50345;51.136;16.886;2022-11-20T00:38:45;74.07;;;39.35;;
6955;SDS011;50345;51.136;16.886;2022-11-20T00:41:12;52.85;;;30.80;;
6955;SDS011;50345;51.136;16.886;2022-11-20T00:43:38;62.75;;;34.38;;
6955;SDS011;50345;51.136;16.886;2022-11-20T00:46:15;60.05;;;33.90;;
6955;SDS011;50345;51.136;16.886;2022-11-20T00:48:41;59.40;;;32.30;;
6955;SDS011;50345;51.136;16.886;2022-11-20T00:51:07;69.20;;;34.47;;
6955;SDS011;50345;51.136;16.886;2022-11-20T00:53:33;72.53;;;38.35;;
6955;SDS011;50345;51.136;16.886;2022-11-20T00:56:01;76.30;;;35.90;;
6955;SDS011;50345;51.136;16.886;2022-11-20T00:58:31;74.75;;;39.28;;
6955;SDS011;50345;51.136;16.886;2022-11-20T01:01:02;56.05;;;33.28;;
6955;SDS011;50345;51.136;16.886;2022-11-20T01:03:30;68.55;;;34.33;;
6955;SDS011;50345;51.136;16.886;2022-11-20T01:05:59;61.50;;;32.90;;
6955;SDS011;50345;51.136;16.886;2022-11-20T01:08:28;65.60;;;32.50;;
6955;SDS011;50345;51.136;16.886;2022-11-20T01:10:58;60.78;;;32.80;;
6955;SDS011;50345;51.136;16.886;2022-11-20T01:13:24;54.28;;;32.15;;
6955;SDS011;50345;51.136;16.886;2022-11-20T01:16:18;65.35;;;34.08;;
6955;SDS011;50345;51.136;16.886;2022-11-20T01:18:45;57.90;;;32.17;;
6955;SDS011;50345;51.136;16.886;2022-11-20T01:21:14;64.50;;;33.17;;
6955;SDS011;50345;51.136;16.886;2022-11-20T01:23:40;97.05;;;39.33;;
6955;SDS011;50345;51.136;16.886;2022-11-20T01:26:08;66.38;;;33.05;;
6955;SDS011;50345;51.136;16.886;2022-11-20T01:28:35;58.17;;;30.98;;
6955;SDS011;50345;51.136;16.886;2022-11-20T01:31:01;54.45;;;31.00;;
6955;SDS011;50345;51.136;16.886;2022-11-20T01:33:27;49.55;;;29.48;;
6955;SDS011;50345;51.136;16.886;2022-11-20T01:35:53;55.00;;;30.85;;
6955;SDS011;50345;51.136;16.886;2022-11-20T01:38:19;55.30;;;30.20;;
6955;SDS011;50345;51.136;16.886;2022-11-20T01:40:53;59.00;;;33.63;;
6955;SDS011;50345;51.136;16.886;2022-11-20T01:43:20;74.05;;;32.08;;
6955;SDS011;50345;51.136;16.886;2022-11-20T01:48:19;66.57;;;32.28;;
6955;SDS011;50345;51.136;16.886;2022-11-20T01:50:47;55.60;;;31.10;;
6955;SDS011;50345;51.136;16.886;2022-11-20T01:53:15;65.90;;;32.22;;
6955;SDS011;50345;51.136;16.886;2022-11-20T01:55:44;61.25;;;31.35;;
6955;SDS011;50345;51.136;16.886;2022-11-20T01:58:12;70.65;;;33.10;;
6955;SDS011;50345;51.136;16.886;2022-11-20T02:00:38;52.42;;;27.88;;
6955;SDS011;50345;51.136;16.886;2022-11-20T02:03:07;50.65;;;27.20;;
6955;SDS011;50345;51.136;16.886;2022-11-20T02:08:08;44.67;;;24.90;;
6955;SDS011;50345;51.136;16.886;2022-11-20T02:10:34;44.15;;;23.55;;
6955;SDS011;50345;51.136;16.886;2022-11-20T02:13:00;49.13;;;23.65;;
6955;SDS011;50345;51.136;16.886;2022-11-20T02:15:45;43.55;;;23.95;;
6955;SDS011;50345;51.136;16.886;2022-11-20T02:18:13;43.92;;;23.45;;
6955;SDS011;50345;51.136;16.886;2022-11-20T02:20:40;47.17;;;26.55;;
6955;SDS011;50345;51.136;16.886;2022-11-20T02:23:12;47.45;;;26.67;;
6955;SDS011;50345;51.136;16.886;2022-11-20T02:25:38;44.42;;;24.75;;
6955;SDS011;50345;51.136;16.886;2022-11-20T02:28:05;47.05;;;26.88;;
6955;SDS011;50345;51.136;16.886;2022-11-20T02:30:31;48.70;;;26.30;;
6955;SDS011;50345;51.136;16.886;2022-11-20T02:32:57;50.50;;;25.02;;
6955;SDS011;50345;51.136;16.886;2022-11-20T02:37:50;44.40;;;23.52;;
6955;SDS011;50345;51.136;16.886;2022-11-20T02:40:18;45.75;;;26.15;;
6955;SDS011;50345;51.136;16.886;2022-11-20T02:42:45;35.45;;;22.58;;
6955;SDS011;50345;51.136;16.886;2022-11-20T02:45:11;36.90;;;24.35;;
6955;SDS011;50345;51.136;16.886;2022-11-20T02:47:37;51.75;;;25.48;;
6955;SDS011;50345;51.136;16.886;2022-11-20T02:50:04;52.58;;;24.15;;
6955;SDS011;50345;51.136;16.886;2022-11-20T02:52:30;50.35;;;25.00;;
6955;SDS011;50345;51.136;16.886;2022-11-20T02:54:56;50.10;;;25.55;;
6955;SDS011;50345;51.136;16.886;2022-11-20T02:57:22;49.35;;;24.83;;
6955;SDS011;50345;51.136;16.886;2022-11-20T02:59:48;45.35;;;24.80;;
6955;SDS011;50345;51.136;16.886;2022-11-20T03:02:14;40.83;;;22.42;;
6955;SDS011;50345;51.136;16.886;2022-11-20T03:04:41;36.97;;;23.67;;
6955;SDS011;50345;51.136;16.886;2022-11-20T03:07:08;45.50;;;22.80;;
6955;SDS011;50345;51.136;16.886;2022-11-20T03:09:34;46.55;;;25.95;;
6955;SDS011;50345;51.136;16.886;2022-11-20T03:12:01;39.47;;;24.85;;
6955;SDS011;50345;51.136;16.886;2022-11-20T03:14:27;45.42;;;26.83;;
6955;SDS011;50345;51.136;16.886;2022-11-20T03:16:53;45.03;;;26.42;;
6955;SDS011;50345;51.136;16.886;2022-11-20T03:19:19;38.35;;;23.02;;
6955;SDS011;50345;51.136;16.886;2022-11-20T03:21:45;41.30;;;24.38;;
6955;SDS011;50345;51.136;16.886;2022-11-20T03:24:11;45.80;;;27.38;;
6955;SDS011;50345;51.136;16.886;2022-11-20T03:26:38;47.33;;;25.25;;
6955;SDS011;50345;51.136;16.886;2022-11-20T03:29:04;39.42;;;25.02;;
6955;SDS011;50345;51.136;16.886;2022-11-20T03:31:31;41.53;;;23.02;;
6955;SDS011;50345;51.136;16.886;2022-11-20T03:33:58;39.80;;;22.30;;
6955;SDS011;50345;51.136;16.886;2022-11-20T03:36:24;38.63;;;22.65;;
6955;SDS011;50345;51.136;16.886;2022-11-20T03:38:50;39.90;;;23.52;;
6955;SDS011;50345;51.136;16.886;2022-11-20T03:41:17;38.58;;;22.40;;
6955;SDS011;50345;51.136;16.886;2022-11-20T03:43:50;40.03;;;22.35;;
6955;SDS011;50345;51.136;16.886;2022-11-20T03:46:17;39.25;;;25.25;;
6955;SDS011;50345;51.136;16.886;2022-11-20T03:48:43;39.67;;;23.15;;
6955;SDS011;50345;51.136;16.886;2022-11-20T03:51:28;39.60;;;22.65;;
6955;SDS011;50345;51.136;16.886;2022-11-20T03:53:55;46.08;;;25.40;;
6955;SDS011;50345;51.136;16.886;2022-11-20T03:56:22;39.88;;;24.05;;
6955;SDS011;50345;51.136;16.886;2022-11-20T03:58:49;42.53;;;23.08;;
6955;SDS011;50345;51.136;16.886;2022-11-20T04:01:16;46.70;;;25.00;;
6955;SDS011;50345;51.136;16.886;2022-11-20T04:03:43;38.90;;;22.90;;
6955;SDS011;50345;51.136;16.886;2022-11-20T04:06:11;40.22;;;22.95;;
6955;SDS011;50345;51.136;16.886;2022-11-20T04:08:37;41.17;;;20.70;;
6955;SDS011;50345;51.136;16.886;2022-11-20T04:11:13;35.15;;;21.77;;
6955;SDS011;50345;51.136;16.886;2022-11-20T04:13:39;38.13;;;20.65;;
6955;SDS011;50345;51.136;16.886;2022-11-20T04:16:06;45.38;;;24.25;;
6955;SDS011;50345;51.136;16.886;2022-11-20T04:18:32;40.50;;;21.98;;
6955;SDS011;50345;51.136;16.886;2022-11-20T04:20:58;37.55;;;21.27;;
6955;SDS011;50345;51.136;16.886;2022-11-20T04:23:25;37.65;;;20.67;;
6955;SDS011;50345;51.136;16.886;2022-11-20T04:25:51;37.75;;;20.55;;
6955;SDS011;50345;51.136;16.886;2022-11-20T04:28:17;38.92;;;21.77;;
6955;SDS011;50345;51.136;16.886;2022-11-20T04:30:43;36.38;;;21.88;;
6955;SDS011;50345;51.136;16.886;2022-11-20T04:33:09;39.88;;;22.60;;
6955;SDS011;50345;51.136;16.886;2022-11-20T04:35:35;50.75;;;25.20;;
6955;SDS011;50345;51.136;16.886;2022-11-20T04:38:01;36.28;;;21.90;;
6955;SDS011;50345;51.136;16.886;2022-11-20T04:40:27;41.80;;;24.40;;
6955;SDS011;50345;51.136;16.886;2022-11-20T04:42:54;39.00;;;22.88;;
6955;SDS011;50345;51.136;16.886;2022-11-20T04:45:20;46.00;;;25.90;;
6955;SDS011;50345;51.136;16.886;2022-11-20T04:47:46;44.47;;;24.60;;
6955;SDS011;50345;51.136;16.886;2022-11-20T04:50:12;34.17;;;22.45;;
6955;SDS011;50345;51.136;16.886;2022-11-20T04:52:38;34.88;;;23.95;;
6955;SDS011;50345;51.136;16.886;2022-11-20T04:55:04;43.72;;;23.63;;
6955;SDS011;50345;51.136;16.886;2022-11-20T04:57:30;44.92;;;25.15;;
6955;SDS011;50345;51.136;16.886;2022-11-20T04:59:56;41.42;;;23.20;;
6955;SDS011;50345;51.136;16.886;2022-11-20T05:02:22;39.53;;;21.67;;
6955;SDS011;50345;51.136;16.886;2022-11-20T05:04:48;38.45;;;21.10;;
6955;SDS011;50345;51.136;16.886;2022-11-20T05:07:14;36.45;;;21.42;;
6955;SDS011;50345;51.136;16.886;2022-11-20T05:09:40;38.95;;;22.58;;
6955;SDS011;50345;51.136;16.886;2022-11-20T05:12:07;38.92;;;22.92;;
6955;SDS011;50345;51.136;16.886;2022-11-20T05:14:33;40.00;;;22.73;;
6955;SDS011;50345;51.136;16.886;2022-11-20T05:16:59;40.88;;;22.50;;
6955;SDS011;50345;51.136;16.886;2022-11-20T05:19:25;34.60;;;20.08;;
6955;SDS011;50345;51.136;16.886;2022-11-20T05:21:51;41.78;;;21.85;;
6955;SDS011;50345;51.136;16.886;2022-11-20T05:24:17;38.90;;;22.25;;
6955;SDS011;50345;51.136;16.886;2022-11-20T05:26:44;39.08;;;21.67;;
6955;SDS011;50345;51.136;16.886;2022-11-20T05:29:10;42.55;;;23.45;;
6955;SDS011;50345;51.136;16.886;2022-11-20T05:31:38;37.92;;;21.75;;
6955;SDS011;50345;51.136;16.886;2022-11-20T05:34:04;37.97;;;20.80;;
6955;SDS011;50345;51.136;16.886;2022-11-20T05:36:30;38.10;;;22.10;;
6955;SDS011;50345;51.136;16.886;2022-11-20T05:38:56;34.05;;;20.25;;
6955;SDS011;50345;51.136;16.886;2022-11-20T05:41:22;33.92;;;20.00;;
6955;SDS011;50345;51.136;16.886;2022-11-20T05:43:48;29.70;;;19.55;;
6955;SDS011;50345;51.136;16.886;2022-11-20T05:46:16;39.00;;;23.17;;
6955;SDS011;50345;51.136;16.886;2022-11-20T05:48:42;34.70;;;22.27;;
6955;SDS011;50345;51.136;16.886;2022-11-20T05:51:10;36.85;;;21.15;;
6955;SDS011;50345;51.136;16.886;2022-11-20T05:53:36;38.08;;;21.60;;
6955;SDS011;50345;51.136;16.886;2022-11-20T05:56:03;36.33;;;21.08;;
6955;SDS011;50345;51.136;16.886;2022-11-20T05:58:30;40.15;;;21.92;;
6955;SDS011;50345;51.136;16.886;2022-11-20T06:01:30;39.38;;;22.65;;
6955;SDS011;50345;51.136;16.886;2022-11-20T06:03:49;43.33;;;21.70;;
6955;SDS011;50345;51.136;16.886;2022-11-20T06:06:15;42.85;;;23.08;;
6955;SDS011;50345;51.136;16.886;2022-11-20T06:08:42;38.22;;;20.45;;
6955;SDS011;50345;51.136;16.886;2022-11-20T06:11:09;34.63;;;20.63;;
6955;SDS011;50345;51.136;16.886;2022-11-20T06:13:35;41.00;;;21.80;;
6955;SDS011;50345;51.136;16.886;2022-11-20T06:16:01;51.28;;;24.08;;
6955;SDS011;50345;51.136;16.886;2022-11-20T06:18:27;39.75;;;24.08;;
6955;SDS011;50345;51.136;16.886;2022-11-20T06:21:04;49.05;;;25.10;;
6955;SDS011;50345;51.136;16.886;2022-11-20T06:23:31;37.95;;;25.45;;
6955;SDS011;50345;51.136;16.886;2022-11-20T06:25:58;44.05;;;24.42;;
6955;SDS011;50345;51.136;16.886;2022-11-20T06:28:26;46.83;;;26.98;;
6955;SDS011;50345;51.136;16.886;2022-11-20T06:30:52;45.42;;;25.42;;
6955;SDS011;50345;51.136;16.886;2022-11-20T06:33:18;42.50;;;25.75;;
6955;SDS011;50345;51.136;16.886;2022-11-20T06:35:44;53.88;;;27.38;;
6955;SDS011;50345;51.136;16.886;2022-11-20T06:38:10;58.92;;;29.33;;
6955;SDS011;50345;51.136;16.886;2022-11-20T06:40:39;52.17;;;28.55;;
6955;SDS011;50345;51.136;16.886;2022-11-20T06:43:05;56.05;;;26.52;;
6955;SDS011;50345;51.136;16.886;2022-11-20T06:45:31;52.75;;;29.55;;
6955;SDS011;50345;51.136;16.886;2022-11-20T06:47:57;56.55;;;30.55;;
6955;SDS011;50345;51.136;16.886;2022-11-20T06:50:23;62.25;;;30.10;;
6955;SDS011;50345;51.136;16.886;2022-11-20T06:52:49;55.58;;;32.88;;
6955;SDS011;50345;51.136;16.886;2022-11-20T06:55:15;57.00;;;29.80;;
6955;SDS011;50345;51.136;16.886;2022-11-20T06:57:41;41.90;;;27.40;;
6955;SDS011;50345;51.136;16.886;2022-11-20T07:00:07;55.60;;;31.08;;
6955;SDS011;50345;51.136;16.886;2022-11-20T07:02:34;55.45;;;31.58;;
6955;SDS011;50345;51.136;16.886;2022-11-20T07:05:00;56.00;;;33.00;;
6955;SDS011;50345;51.136;16.886;2022-11-20T07:07:26;47.53;;;31.63;;
6955;SDS011;50345;51.136;16.886;2022-11-20T07:09:52;54.10;;;32.50;;
6955;SDS011;50345;51.136;16.886;2022-11-20T07:12:18;50.13;;;28.80;;
6955;SDS011;50345;51.136;16.886;2022-11-20T07:14:44;44.42;;;28.95;;
6955;SDS011;50345;51.136;16.886;2022-11-20T07:17:10;53.47;;;30.38;;
6955;SDS011;50345;51.136;16.886;2022-11-20T07:19:36;58.78;;;30.40;;
6955;SDS011;50345;51.136;16.886;2022-11-20T07:22:02;55.88;;;32.67;;
6955;SDS011;50345;51.136;16.886;2022-11-20T07:24:28;57.00;;;32.28;;
6955;SDS011;50345;51.136;16.886;2022-11-20T07:26:54;66.40;;;33.42;;
6955;SDS011;50345;51.136;16.886;2022-11-20T07:29:20;61.55;;;32.40;;
6955;SDS011;50345;51.136;16.886;2022-11-20T07:31:46;62.20;;;35.17;;
6955;SDS011;50345;51.136;16.886;2022-11-20T07:34:11;58.47;;;33.25;;
6955;SDS011;50345;51.136;16.886;2022-11-20T07:36:38;65.97;;;34.65;;
6955;SDS011;50345;51.136;16.886;2022-11-20T07:39:05;59.50;;;35.35;;
6955;SDS011;50345;51.136;16.886;2022-11-20T07:41:31;63.20;;;33.80;;
6955;SDS011;50345;51.136;16.886;2022-11-20T07:43:57;62.15;;;34.65;;
6955;SDS011;50345;51.136;16.886;2022-11-20T07:46:23;62.83;;;36.38;;
6955;SDS011;50345;51.136;16.886;2022-11-20T07:48:49;68.43;;;36.38;;
6955;SDS011;50345;51.136;16.886;2022-11-20T07:51:15;56.08;;;34.45;;
6955;SDS011;50345;51.136;16.886;2022-11-20T07:53:41;53.55;;;32.22;;
6955;SDS011;50345;51.136;16.886;2022-11-20T07:56:07;41.17;;;26.60;;
6955;SDS011;50345;51.136;16.886;2022-11-20T07:58:33;43.97;;;23.42;;
6955;SDS011;50345;51.136;16.886;2022-11-20T08:01:03;40.08;;;25.33;;
6955;SDS011;50345;51.136;16.886;2022-11-20T08:03:29;44.28;;;23.98;;
6955;SDS011;50345;51.136;16.886;2022-11-20T08:05:57;38.97;;;22.40;;
6955;SDS011;50345;51.136;16.886;2022-11-20T08:08:24;36.45;;;22.42;;
6955;SDS011;50345;51.136;16.886;2022-11-20T08:10:50;30.67;;;22.48;;
6955;SDS011;50345;51.136;16.886;2022-11-20T08:13:16;35.53;;;23.83;;
6955;SDS011;50345;51.136;16.886;2022-11-20T08:16:01;39.85;;;21.38;;
6955;SDS011;50345;51.136;16.886;2022-11-20T08:18:27;37.70;;;22.02;;
6955;SDS011;50345;51.136;16.886;2022-11-20T08:20:53;29.95;;;20.23;;
6955;SDS011;50345;51.136;16.886;2022-11-20T08:23:19;31.63;;;20.08;;
6955;SDS011;50345;51.136;16.886;2022-11-20T08:25:48;45.03;;;24.75;;
6955;SDS011;50345;51.136;16.886;2022-11-20T08:28:14;34.75;;;23.15;;
6955;SDS011;50345;51.136;16.886;2022-11-20T08:30:40;34.35;;;20.52;;
6955;SDS011;50345;51.136;16.886;2022-11-20T08:33:07;39.80;;;23.75;;
6955;SDS011;50345;51.136;16.886;2022-11-20T08:35:37;35.25;;;23.50;;
6955;SDS011;50345;51.136;16.886;2022-11-20T08:38:04;37.08;;;24.30;;
6955;SDS011;50345;51.136;16.886;2022-11-20T08:40:30;35.25;;;22.90;;
6955;SDS011;50345;51.136;16.886;2022-11-20T08:42:56;36.25;;;23.08;;
6955;SDS011;50345;51.136;16.886;2022-11-20T08:45:24;30.13;;;21.27;;
6955;SDS011;50345;51.136;16.886;2022-11-20T08:47:50;31.80;;;22.65;;
6955;SDS011;50345;51.136;16.886;2022-11-20T08:50:16;34.08;;;20.33;;
6955;SDS011;50345;51.136;16.886;2022-11-20T08:52:42;30.30;;;20.55;;
6955;SDS011;50345;51.136;16.886;2022-11-20T08:55:09;30.65;;;20.52;;
6955;SDS011;50345;51.136;16.886;2022-11-20T08:57:35;34.42;;;22.65;;
6955;SDS011;50345;51.136;16.886;2022-11-20T09:00:03;35.25;;;22.13;;
6955;SDS011;50345;51.136;16.886;2022-11-20T09:02:29;30.45;;;22.33;;
6955;SDS011;50345;51.136;16.886;2022-11-20T09:04:56;32.83;;;22.20;;
6955;SDS011;50345;51.136;16.886;2022-11-20T09:07:22;27.85;;;21.40;;
6955;SDS011;50345;51.136;16.886;2022-11-20T09:09:48;32.65;;;22.35;;
6955;SDS011;50345;51.136;16.886;2022-11-20T09:12:14;27.75;;;20.38;;
6955;SDS011;50345;51.136;16.886;2022-11-20T09:14:40;31.25;;;22.27;;
6955;SDS011;50345;51.136;16.886;2022-11-20T09:17:06;30.95;;;21.52;;
6955;SDS011;50345;51.136;16.886;2022-11-20T09:19:32;31.33;;;24.15;;
6955;SDS011;50345;51.136;16.886;2022-11-20T09:21:58;24.13;;;21.17;;
6955;SDS011;50345;51.136;16.886;2022-11-20T09:24:25;26.80;;;18.60;;
6955;SDS011;50345;51.136;16.886;2022-11-20T09:26:51;23.77;;;18.77;;
6955;SDS011;50345;51.136;16.886;2022-11-20T09:29:17;26.83;;;21.25;;
6955;SDS011;50345;51.136;16.886;2022-11-20T09:31:43;28.92;;;21.17;;
6955;SDS011;50345;51.136;16.886;2022-11-20T09:34:09;25.35;;;21.00;;
6955;SDS011;50345;51.136;16.886;2022-11-20T09:36:35;30.42;;;22.00;;
6955;SDS011;50345;51.136;16.886;2022-11-20T09:39:01;28.70;;;20.95;;
6955;SDS011;50345;51.136;16.886;2022-11-20T09:51:46;29.63;;;22.40;;
6955;SDS011;50345;51.136;16.886;2022-11-20T09:54:20;27.98;;;21.80;;
6955;SDS011;50345;51.136;16.886;2022-11-20T09:56:52;32.15;;;21.40;;
6955;SDS011;50345;51.136;16.886;2022-11-20T09:59:26;27.30;;;21.58;;
6955;SDS011;50345;51.136;16.886;2022-11-20T10:01:53;26.70;;;21.65;;
6955;SDS011;50345;51.136;16.886;2022-11-20T10:04:20;26.10;;;21.75;;
6955;SDS011;50345;51.136;16.886;2022-11-20T10:06:50;24.85;;;22.10;;
6955;SDS011;50345;51.136;16.886;2022-11-20T10:09:21;26.38;;;22.40;;
6955;SDS011;50345;51.136;16.886;2022-11-20T10:11:57;27.70;;;22.80;;
6955;SDS011;50345;51.136;16.886;2022-11-20T10:25:42;30.17;;;22.30;;
6955;SDS011;50345;51.136;16.886;2022-11-20T10:30:34;21.38;;;19.00;;
6955;SDS011;50345;51.136;16.886;2022-11-20T10:33:36;21.40;;;18.20;;
6955;SDS011;50345;51.136;16.886;2022-11-20T10:35:58;22.88;;;19.30;;
6955;SDS011;50345;51.136;16.886;2022-11-20T10:38:31;23.80;;;20.50;;
6955;SDS011;50345;51.136;16.886;2022-11-20T10:41:01;22.08;;;19.30;;
6955;SDS011;50345;51.136;16.886;2022-11-20T10:43:47;21.35;;;19.02;;
6955;SDS011;50345;51.136;16.886;2022-11-20T10:46:18;23.42;;;20.00;;
6955;SDS011;50345;51.136;16.886;2022-11-20T10:48:44;19.88;;;17.63;;
6955;SDS011;50345;51.136;16.886;2022-11-20T10:51:21;23.40;;;20.92;;
6955;SDS011;50345;51.136;16.886;2022-11-20T10:56:22;20.45;;;18.40;;
6955;SDS011;50345;51.136;16.886;2022-11-20T11:01:17;21.93;;;17.90;;
6955;SDS011;50345;51.136;16.886;2022-11-20T11:03:44;23.25;;;20.77;;
6955;SDS011;50345;51.136;16.886;2022-11-20T11:06:13;20.30;;;18.10;;
6955;SDS011;50345;51.136;16.886;2022-11-20T11:08:40;19.55;;;17.33;;
6955;SDS011;50345;51.136;16.886;2022-11-20T11:11:14;19.77;;;16.40;;
6955;SDS011;50345;51.136;16.886;2022-11-20T11:13:50;19.85;;;17.23;;
6955;SDS011;50345;51.136;16.886;2022-11-20T11:16:23;26.65;;;20.02;;
6955;SDS011;50345;51.136;16.886;2022-11-20T11:18:50;20.17;;;17.75;;
6955;SDS011;50345;51.136;16.886;2022-11-20T11:21:25;20.23;;;17.15;;
6955;SDS011;50345;51.136;16.886;2022-11-20T11:24:02;20.20;;;17.25;;
6955;SDS011;50345;51.136;16.886;2022-11-20T11:26:29;20.70;;;17.75;;
6955;SDS011;50345;51.136;16.886;2022-11-20T11:31:22;20.00;;;18.00;;
6955;SDS011;50345;51.136;16.886;2022-11-20T11:33:48;24.27;;;19.50;;
6955;SDS011;50345;51.136;16.886;2022-11-20T11:36:19;22.77;;;19.17;;
6955;SDS011;50345;51.136;16.886;2022-11-20T11:38:48;20.20;;;17.75;;
6955;SDS011;50345;51.136;16.886;2022-11-20T11:41:20;19.85;;;17.48;;
6955;SDS011;50345;51.136;16.886;2022-11-20T11:43:52;22.70;;;18.52;;
6955;SDS011;50345;51.136;16.886;2022-11-20T11:46:38;19.65;;;17.25;;
6955;SDS011;50345;51.136;16.886;2022-11-20T11:54:17;20.75;;;17.98;;
6955;SDS011;50345;51.136;16.886;2022-11-20T11:56:43;21.15;;;18.88;;
6955;SDS011;50345;51.136;16.886;2022-11-20T11:59:12;25.60;;;18.95;;
6955;SDS011;50345;51.136;16.886;2022-11-20T12:01:47;22.13;;;17.30;;
6955;SDS011;50345;51.136;16.886;2022-11-20T12:04:21;21.35;;;17.23;;
6955;SDS011;50345;51.136;16.886;2022-11-20T12:06:53;21.08;;;17.38;;
6955;SDS011;50345;51.136;16.886;2022-11-20T12:09:24;22.63;;;17.40;;
6955;SDS011;50345;51.136;16.886;2022-11-20T12:11:54;23.35;;;18.40;;
6955;SDS011;50345;51.136;16.886;2022-11-20T12:16:50;24.63;;;17.88;;
6955;SDS011;50345;51.136;16.886;2022-11-20T12:19:18;28.50;;;17.23;;
6955;SDS011;50345;51.136;16.886;2022-11-20T12:26:52;22.15;;;17.25;;
6955;SDS011;50345;51.136;16.886;2022-11-20T12:39:54;17.93;;;16.10;;
6955;SDS011;50345;51.136;16.886;2022-11-20T12:42:30;19.48;;;16.15;;
6955;SDS011;50345;51.136;16.886;2022-11-20T12:48:22;17.77;;;15.90;;
6955;SDS011;50345;51.136;16.886;2022-11-20T12:53:38;16.67;;;14.57;;
6955;SDS011;50345;51.136;16.886;2022-11-20T12:56:19;18.65;;;14.68;;
6955;SDS011;50345;51.136;16.886;2022-11-20T13:04:07;17.27;;;15.52;;
6955;SDS011;50345;51.136;16.886;2022-11-20T13:06:34;17.70;;;15.75;;
6955;SDS011;50345;51.136;16.886;2022-11-20T13:09:00;16.95;;;14.85;;
6955;SDS011;50345;51.136;16.886;2022-11-20T13:11:31;20.75;;;16.95;;
6955;SDS011;50345;51.136;16.886;2022-11-20T13:18:53;22.50;;;18.20;;
6955;SDS011;50345;51.136;16.886;2022-11-20T13:21:35;19.48;;;15.57;;
6955;SDS011;50345;51.136;16.886;2022-11-20T13:24:05;18.80;;;16.10;;
6955;SDS011;50345;51.136;16.886;2022-11-20T13:26:32;19.67;;;16.05;;
6955;SDS011;50345;51.136;16.886;2022-11-20T13:28:59;19.02;;;15.05;;
6955;SDS011;50345;51.136;16.886;2022-11-20T13:31:34;17.33;;;13.80;;
6955;SDS011;50345;51.136;16.886;2022-11-20T13:34:02;20.67;;;15.93;;
6955;SDS011;50345;51.136;16.886;2022-11-20T13:36:29;21.10;;;16.13;;
6955;SDS011;50345;51.136;16.886;2022-11-20T13:38:57;26.63;;;16.58;;
6955;SDS011;50345;51.136;16.886;2022-11-20T13:41:24;23.48;;;16.77;;
6955;SDS011;50345;51.136;16.886;2022-11-20T13:43:54;21.02;;;15.57;;
6955;SDS011;50345;51.136;16.886;2022-11-20T13:46:20;21.65;;;15.23;;
6955;SDS011;50345;51.136;16.886;2022-11-20T13:48:49;20.42;;;14.88;;
6955;SDS011;50345;51.136;16.886;2022-11-20T13:51:23;22.38;;;16.17;;
6955;SDS011;50345;51.136;16.886;2022-11-20T14:01:41;21.92;;;15.45;;
6955;SDS011;50345;51.136;16.886;2022-11-20T14:04:11;22.20;;;15.50;;
6955;SDS011;50345;51.136;16.886;2022-11-20T14:06:43;26.92;;;14.63;;
6955;SDS011;50345;51.136;16.886;2022-11-20T14:09:24;18.10;;;14.30;;
6955;SDS011;50345;51.136;16.886;2022-11-20T14:11:50;19.70;;;14.25;;
6955;SDS011;50345;51.136;16.886;2022-11-20T14:14:17;20.73;;;15.23;;
6955;SDS011;50345;51.136;16.886;2022-11-20T14:16:44;22.00;;;14.57;;
6955;SDS011;50345;51.136;16.886;2022-11-20T14:21:42;24.65;;;17.08;;
6955;SDS011;50345;51.136;16.886;2022-11-20T14:24:10;28.25;;;16.63;;
6955;SDS011;50345;51.136;16.886;2022-11-20T14:26:37;23.30;;;14.57;;
6955;SDS011;50345;51.136;16.886;2022-11-20T14:29:03;26.92;;;16.83;;
6955;SDS011;50345;51.136;16.886;2022-11-20T14:31:30;24.08;;;16.08;;
6955;SDS011;50345;51.136;16.886;2022-11-20T14:33:56;21.80;;;15.00;;
6955;SDS011;50345;51.136;16.886;2022-11-20T14:36:23;22.48;;;14.73;;
6955;SDS011;50345;51.136;16.886;2022-11-20T14:38:50;23.52;;;15.25;;
6955;SDS011;50345;51.136;16.886;2022-11-20T14:41:20;24.48;;;15.00;;
6955;SDS011;50345;51.136;16.886;2022-11-20T14:43:51;27.63;;;18.20;;
6955;SDS011;50345;51.136;16.886;2022-11-20T14:46:19;18.55;;;14.93;;
6955;SDS011;50345;51.136;16.886;2022-11-20T14:48:49;24.15;;;15.90;;
6955;SDS011;50345;51.136;16.886;2022-11-20T14:51:30;24.60;;;16.17;;
6955;SDS011;50345;51.136;16.886;2022-11-20T14:53:56;23.77;;;15.10;;
6955;SDS011;50345;51.136;16.886;2022-11-20T14:56:33;21.80;;;15.77;;
6955;SDS011;50345;51.136;16.886;2022-11-20T14:58:59;24.45;;;16.23;;
6955;SDS011;50345;51.136;16.886;2022-11-20T15:01:25;23.50;;;18.27;;
6955;SDS011;50345;51.136;16.886;2022-11-20T15:03:58;27.40;;;18.27;;
6955;SDS011;50345;51.136;16.886;2022-11-20T15:06:25;23.45;;;15.20;;
6955;SDS011;50345;51.136;16.886;2022-11-20T15:08:52;26.73;;;16.15;;
6955;SDS011;50345;51.136;16.886;2022-11-20T15:11:19;28.30;;;17.77;;
6955;SDS011;50345;51.136;16.886;2022-11-20T15:13:46;32.97;;;20.20;;
6955;SDS011;50345;51.136;16.886;2022-11-20T15:16:21;25.27;;;16.35;;
6955;SDS011;50345;51.136;16.886;2022-11-20T15:18:48;23.40;;;15.35;;
6955;SDS011;50345;51.136;16.886;2022-11-20T15:21:15;23.58;;;15.60;;
6955;SDS011;50345;51.136;16.886;2022-11-20T15:23:41;22.55;;;15.40;;
6955;SDS011;50345;51.136;16.886;2022-11-20T15:26:08;19.75;;;14.35;;
6955;SDS011;50345;51.136;16.886;2022-11-20T15:28:41;28.60;;;17.10;;
6955;SDS011;50345;51.136;16.886;2022-11-20T15:31:15;24.10;;;14.60;;
6955;SDS011;50345;51.136;16.886;2022-11-20T15:33:41;20.08;;;14.27;;
6955;SDS011;50345;51.136;16.886;2022-11-20T15:36:07;21.98;;;14.38;;
6955;SDS011;50345;51.136;16.886;2022-11-20T15:38:33;22.25;;;15.32;;
6955;SDS011;50345;51.136;16.886;2022-11-20T15:40:59;18.85;;;12.80;;
6955;SDS011;50345;51.136;16.886;2022-11-20T15:43:25;25.60;;;14.68;;
6955;SDS011;50345;51.136;16.886;2022-11-20T15:48:27;20.52;;;14.65;;
6955;SDS011;50345;51.136;16.886;2022-11-20T15:50:59;20.42;;;13.60;;
6955;SDS011;50345;51.136;16.886;2022-11-20T15:53:27;23.13;;;16.25;;
6955;SDS011;50345;51.136;16.886;2022-11-20T15:55:53;26.33;;;15.13;;
6955;SDS011;50345;51.136;16.886;2022-11-20T15:58:19;23.95;;;16.17;;